sensor_id;sensor_type;location;lat;lon;timestamp;pressure;altitude;pressure_sealevel;temperature;humidity
70488;BME280;57976;48.174;16.370;2023-07-13T00:01:39;98930.52;;;21.77;94.53
70488;BME280;57976;48.174;16.370;2023-07-13T00:03:44;98925.11;;;21.75;94.75
70488;BME280;57976;48.174;16.370;2023-07-13T00:05:59;98925.09;;;21.69;95.38
70488;BME280;57976;48.174;16.370;2023-07-13T00:08:04;98927.63;;;21.66;96.51
70488;BME280;57976;48.174;16.370;2023-07-13T00:10:10;98924.40;;;21.68;97.35
70488;BME280;57976;48.174;16.370;2023-07-13T00:12:28;98913.53;;;21.71;97.59
70488;BME280;57976;48.174;16.370;2023-07-13T00:14:34;98904.61;;;21.74;98.34
70488;BME280;57976;48.174;16.370;2023-07-13T00:16:40;98902.65;;;21.76;98.68
70488;BME280;57976;48.174;16.370;2023-07-13T00:18:46;98900.75;;;21.76;99.91
70488;BME280;57976;48.174;16.370;2023-07-13T00:20:55;98900.20;;;21.76;99.68
70488;BME280;57976;48.174;16.370;2023-07-13T00:23:04;98897.54;;;21.78;99.28
70488;BME280;57976;48.174;16.370;2023-07-13T00:25:11;98888.25;;;21.78;99.15
70488;BME280;57976;48.174;16.370;2023-07-13T00:27:16;98886.38;;;21.77;98.95
70488;BME280;57976;48.174;16.370;2023-07-13T00:29:21;98886.05;;;21.75;99.24
70488;BME280;57976;48.174;16.370;2023-07-13T00:31:26;98877.03;;;21.77;99.73
70488;BME280;57976;48.174;16.370;2023-07-13T00:33:35;98872.17;;;21.80;99.44
70488;BME280;57976;48.174;16.370;2023-07-13T00:35:40;98865.83;;;21.81;99.44
70488;BME280;57976;48.174;16.370;2023-07-13T00:37:47;98868.26;;;21.81;99.03
70488;BME280;57976;48.174;16.370;2023-07-13T00:39:52;98864.31;;;21.82;98.21
70488;BME280;57976;48.174;16.370;2023-07-13T00:42:01;98868.20;;;21.82;97.46
70488;BME280;57976;48.174;16.370;2023-07-13T00:44:08;98871.30;;;21.84;93.99
70488;BME280;57976;48.174;16.370;2023-07-13T00:46:21;98864.62;;;21.87;90.99
70488;BME280;57976;48.174;16.370;2023-07-13T00:48:29;98869.33;;;21.93;88.52
70488;BME280;57976;48.174;16.370;2023-07-13T00:50:35;98867.89;;;22.01;87.94
70488;BME280;57976;48.174;16.370;2023-07-13T00:52:44;98860.51;;;22.07;87.38
70488;BME280;57976;48.174;16.370;2023-07-13T00:54:50;98857.00;;;22.11;86.84
70488;BME280;57976;48.174;16.370;2023-07-13T00:57:00;98855.77;;;22.13;86.46
70488;BME280;57976;48.174;16.370;2023-07-13T00:59:08;98850.02;;;22.15;86.39
70488;BME280;57976;48.174;16.370;2023-07-13T01:04:32;98831.95;;;22.19;86.56
70488;BME280;57976;48.174;16.370;2023-07-13T01:06:39;98828.44;;;22.17;86.35
70488;BME280;57976;48.174;16.370;2023-07-13T01:08:44;98823.17;;;22.16;86.01
70488;BME280;57976;48.174;16.370;2023-07-13T01:10:56;98817.67;;;22.14;85.17
70488;BME280;57976;48.174;16.370;2023-07-13T01:13:02;98820.29;;;22.13;84.47
70488;BME280;57976;48.174;16.370;2023-07-13T01:15:35;98815.10;;;22.11;84.15
70488;BME280;57976;48.174;16.370;2023-07-13T01:17:41;98832.84;;;22.11;83.87
70488;BME280;57976;48.174;16.370;2023-07-13T01:19:47;98829.50;;;22.09;83.74
70488;BME280;57976;48.174;16.370;2023-07-13T01:21:53;98825.98;;;22.08;83.69
70488;BME280;57976;48.174;16.370;2023-07-13T01:23:59;98823.11;;;22.08;83.57
70488;BME280;57976;48.174;16.370;2023-07-13T01:26:04;98822.58;;;22.08;83.51
70488;BME280;57976;48.174;16.370;2023-07-13T01:28:10;98827.51;;;22.09;82.83
70488;BME280;57976;48.174;16.370;2023-07-13T01:30:16;98826.63;;;22.10;82.31
70488;BME280;57976;48.174;16.370;2023-07-13T01:32:23;98814.77;;;22.11;81.86
70488;BME280;57976;48.174;16.370;2023-07-13T01:34:32;98809.16;;;22.13;81.39
70488;BME280;57976;48.174;16.370;2023-07-13T01:36:37;98816.05;;;22.14;80.94
70488;BME280;57976;48.174;16.370;2023-07-13T01:38:43;98810.52;;;22.16;80.39
70488;BME280;57976;48.174;16.370;2023-07-13T01:40:48;98810.78;;;22.20;80.09
70488;BME280;57976;48.174;16.370;2023-07-13T01:42:53;98805.25;;;22.23;79.85
70488;BME280;57976;48.174;16.370;2023-07-13T01:44:58;98804.27;;;22.27;79.70
70488;BME280;57976;48.174;16.370;2023-07-13T01:47:04;98796.44;;;22.30;79.11
70488;BME280;57976;48.174;16.370;2023-07-13T01:49:09;98792.16;;;22.33;79.11
70488;BME280;57976;48.174;16.370;2023-07-13T01:51:15;98785.49;;;22.36;79.04
70488;BME280;57976;48.174;16.370;2023-07-13T01:53:21;98777.97;;;22.39;78.99
70488;BME280;57976;48.174;16.370;2023-07-13T01:55:26;98774.63;;;22.40;79.07
70488;BME280;57976;48.174;16.370;2023-07-13T01:57:30;98783.08;;;22.42;79.14
70488;BME280;57976;48.174;16.370;2023-07-13T01:59:35;98787.48;;;22.43;79.20
70488;BME280;57976;48.174;16.370;2023-07-13T02:01:40;98795.40;;;22.43;79.27
70488;BME280;57976;48.174;16.370;2023-07-13T02:03:45;98799.79;;;22.44;79.17
70488;BME280;57976;48.174;16.370;2023-07-13T02:05:50;98796.55;;;22.46;79.04
70488;BME280;57976;48.174;16.370;2023-07-13T02:07:55;98791.48;;;22.48;78.91
70488;BME280;57976;48.174;16.370;2023-07-13T02:09:59;98788.79;;;22.50;78.84
70488;BME280;57976;48.174;16.370;2023-07-13T02:12:05;98790.05;;;22.53;78.79
70488;BME280;57976;48.174;16.370;2023-07-13T02:14:10;98791.36;;;22.57;78.62
70488;BME280;57976;48.174;16.370;2023-07-13T02:16:15;98792.95;;;22.62;78.64
70488;BME280;57976;48.174;16.370;2023-07-13T02:18:20;98802.59;;;22.64;78.41
70488;BME280;57976;48.174;16.370;2023-07-13T02:20:25;98813.84;;;22.69;78.27
70488;BME280;57976;48.174;16.370;2023-07-13T02:22:30;98823.33;;;22.73;78.32
70488;BME280;57976;48.174;16.370;2023-07-13T02:24:35;98831.33;;;22.77;78.10
70488;BME280;57976;48.174;16.370;2023-07-13T02:26:40;98838.02;;;22.80;78.05
70488;BME280;57976;48.174;16.370;2023-07-13T02:28:44;98854.29;;;22.83;78.12
70488;BME280;57976;48.174;16.370;2023-07-13T02:30:49;98858.09;;;22.87;77.96
70488;BME280;57976;48.174;16.370;2023-07-13T02:32:55;98864.58;;;22.90;78.06
70488;BME280;57976;48.174;16.370;2023-07-13T02:35:00;98883.10;;;22.94;77.98
70488;BME280;57976;48.174;16.370;2023-07-13T02:37:06;98892.23;;;22.97;77.95
70488;BME280;57976;48.174;16.370;2023-07-13T02:39:13;98902.24;;;23.01;77.75
70488;BME280;57976;48.174;16.370;2023-07-13T02:41:19;98905.85;;;23.04;77.96
70488;BME280;57976;48.174;16.370;2023-07-13T02:43:23;98921.46;;;23.06;77.83
70488;BME280;57976;48.174;16.370;2023-07-13T02:45:28;98929.92;;;23.09;77.71
70488;BME280;57976;48.174;16.370;2023-07-13T02:47:35;98942.77;;;23.11;77.69
70488;BME280;57976;48.174;16.370;2023-07-13T02:49:40;98956.14;;;23.12;77.99
70488;BME280;57976;48.174;16.370;2023-07-13T02:51:45;98967.98;;;23.12;78.40
70488;BME280;57976;48.174;16.370;2023-07-13T02:53:49;98973.20;;;23.11;78.97
70488;BME280;57976;48.174;16.370;2023-07-13T02:55:54;98979.89;;;23.12;79.21
70488;BME280;57976;48.174;16.370;2023-07-13T02:57:59;98985.67;;;23.11;79.42
70488;BME280;57976;48.174;16.370;2023-07-13T03:00:09;98996.37;;;23.11;80.07
70488;BME280;57976;48.174;16.370;2023-07-13T03:02:14;99006.23;;;23.09;80.13
70488;BME280;57976;48.174;16.370;2023-07-13T03:04:19;99013.10;;;23.06;80.29
70488;BME280;57976;48.174;16.370;2023-07-13T03:06:24;99016.06;;;23.04;81.24
70488;BME280;57976;48.174;16.370;2023-07-13T03:08:30;99020.18;;;23.00;81.88
70488;BME280;57976;48.174;16.370;2023-07-13T03:10:35;99028.70;;;22.93;82.46
70488;BME280;57976;48.174;16.370;2023-07-13T03:12:41;99033.45;;;22.84;83.24
70488;BME280;57976;48.174;16.370;2023-07-13T03:14:53;99039.33;;;22.73;83.77
70488;BME280;57976;48.174;16.370;2023-07-13T03:16:58;99043.94;;;22.63;84.38
70488;BME280;57976;48.174;16.370;2023-07-13T03:19:05;99039.80;;;22.53;84.89
70488;BME280;57976;48.174;16.370;2023-07-13T03:21:10;99040.15;;;22.45;85.22
70488;BME280;57976;48.174;16.370;2023-07-13T03:23:16;99039.15;;;22.36;86.52
70488;BME280;57976;48.174;16.370;2023-07-13T03:25:21;99038.02;;;22.27;87.01
70488;BME280;57976;48.174;16.370;2023-07-13T03:27:26;99039.34;;;22.20;87.56
70488;BME280;57976;48.174;16.370;2023-07-13T03:29:31;99041.83;;;22.12;88.29
70488;BME280;57976;48.174;16.370;2023-07-13T03:31:39;99040.96;;;22.04;88.90
70488;BME280;57976;48.174;16.370;2023-07-13T03:33:44;99040.48;;;21.97;89.82
70488;BME280;57976;48.174;16.370;2023-07-13T03:35:49;99039.30;;;21.88;90.69
70488;BME280;57976;48.174;16.370;2023-07-13T03:37:54;99042.40;;;21.82;90.93
70488;BME280;57976;48.174;16.370;2023-07-13T03:40:00;99041.93;;;21.75;91.20
70488;BME280;57976;48.174;16.370;2023-07-13T03:42:09;99043.77;;;21.68;92.66
70488;BME280;57976;48.174;16.370;2023-07-13T03:44:15;99044.71;;;21.62;93.52
70488;BME280;57976;48.174;16.370;2023-07-13T03:46:20;99050.83;;;21.55;94.31
70488;BME280;57976;48.174;16.370;2023-07-13T03:48:25;99055.15;;;21.47;95.10
70488;BME280;57976;48.174;16.370;2023-07-13T03:50:30;99057.63;;;21.40;95.51
70488;BME280;57976;48.174;16.370;2023-07-13T03:52:35;99057.77;;;21.33;97.96
70488;BME280;57976;48.174;16.370;2023-07-13T03:54:41;99055.01;;;21.27;98.06
70488;BME280;57976;48.174;16.370;2023-07-13T03:56:46;99061.27;;;21.22;98.53
70488;BME280;57976;48.174;16.370;2023-07-13T03:58:52;99064.90;;;21.18;99.94
70488;BME280;57976;48.174;16.370;2023-07-13T04:00:58;99064.05;;;21.15;100.00
70488;BME280;57976;48.174;16.370;2023-07-13T04:03:03;99063.41;;;21.10;100.00
70488;BME280;57976;48.174;16.370;2023-07-13T04:05:09;99060.81;;;21.04;100.00
70488;BME280;57976;48.174;16.370;2023-07-13T04:07:13;99057.94;;;20.99;100.00
70488;BME280;57976;48.174;16.370;2023-07-13T04:09:18;99058.27;;;20.95;100.00
70488;BME280;57976;48.174;16.370;2023-07-13T04:11:26;99055.96;;;20.89;100.00
70488;BME280;57976;48.174;16.370;2023-07-13T04:13:31;99058.45;;;20.82;100.00
70488;BME280;57976;48.174;16.370;2023-07-13T04:15:36;99066.92;;;20.76;100.00
70488;BME280;57976;48.174;16.370;2023-07-13T04:17:41;99063.30;;;20.72;100.00
70488;BME280;57976;48.174;16.370;2023-07-13T04:19:46;99050.41;;;20.70;100.00
70488;BME280;57976;48.174;16.370;2023-07-13T04:21:50;99043.81;;;20.68;100.00
70488;BME280;57976;48.174;16.370;2023-07-13T04:23:55;99030.86;;;20.71;100.00
70488;BME280;57976;48.174;16.370;2023-07-13T04:26:00;99019.28;;;20.72;100.00
70488;BME280;57976;48.174;16.370;2023-07-13T04:28:06;99009.52;;;20.72;100.00
70488;BME280;57976;48.174;16.370;2023-07-13T04:30:11;99005.09;;;20.72;100.00
70488;BME280;57976;48.174;16.370;2023-07-13T04:32:16;99002.77;;;20.70;100.00
70488;BME280;57976;48.174;16.370;2023-07-13T04:34:21;98997.96;;;20.64;100.00
70488;BME280;57976;48.174;16.370;2023-07-13T04:36:26;98995.15;;;20.62;100.00
70488;BME280;57976;48.174;16.370;2023-07-13T04:38:32;98997.20;;;20.57;100.00
70488;BME280;57976;48.174;16.370;2023-07-13T04:40:37;98998.04;;;20.51;100.00
70488;BME280;57976;48.174;16.370;2023-07-13T04:42:41;98992.46;;;20.43;100.00
70488;BME280;57976;48.174;16.370;2023-07-13T04:44:50;98987.65;;;20.36;100.00
70488;BME280;57976;48.174;16.370;2023-07-13T04:46:54;98973.96;;;20.32;100.00
70488;BME280;57976;48.174;16.370;2023-07-13T04:48:59;98972.84;;;20.30;100.00
70488;BME280;57976;48.174;16.370;2023-07-13T04:51:04;98960.02;;;20.27;100.00
70488;BME280;57976;48.174;16.370;2023-07-13T04:53:09;98953.59;;;20.24;100.00
70488;BME280;57976;48.174;16.370;2023-07-13T04:55:14;98953.58;;;20.23;100.00
70488;BME280;57976;48.174;16.370;2023-07-13T04:57:19;98948.16;;;20.22;100.00
70488;BME280;57976;48.174;16.370;2023-07-13T04:59:24;98948.02;;;20.23;100.00
70488;BME280;57976;48.174;16.370;2023-07-13T05:01:29;98941.34;;;20.21;100.00
70488;BME280;57976;48.174;16.370;2023-07-13T05:03:34;98934.80;;;20.21;100.00
70488;BME280;57976;48.174;16.370;2023-07-13T05:05:39;98936.16;;;20.25;100.00
70488;BME280;57976;48.174;16.370;2023-07-13T05:07:45;98936.52;;;20.30;100.00
70488;BME280;57976;48.174;16.370;2023-07-13T05:09:52;98931.59;;;20.34;100.00
70488;BME280;57976;48.174;16.370;2023-07-13T05:11:57;98928.08;;;20.35;100.00
70488;BME280;57976;48.174;16.370;2023-07-13T05:14:02;98924.94;;;20.38;100.00
70488;BME280;57976;48.174;16.370;2023-07-13T05:16:07;98926.39;;;20.41;100.00
70488;BME280;57976;48.174;16.370;2023-07-13T05:18:12;98918.63;;;20.44;100.00
70488;BME280;57976;48.174;16.370;2023-07-13T05:20:18;98919.66;;;20.46;100.00
70488;BME280;57976;48.174;16.370;2023-07-13T05:22:23;98922.14;;;20.47;100.00
70488;BME280;57976;48.174;16.370;2023-07-13T05:24:28;98913.88;;;20.46;100.00
70488;BME280;57976;48.174;16.370;2023-07-13T05:26:33;98911.06;;;20.46;100.00
70488;BME280;57976;48.174;16.370;2023-07-13T05:28:38;98913.16;;;20.49;100.00
70488;BME280;57976;48.174;16.370;2023-07-13T05:30:47;98922.02;;;20.54;100.00
70488;BME280;57976;48.174;16.370;2023-07-13T05:32:53;98935.00;;;20.59;100.00
70488;BME280;57976;48.174;16.370;2023-07-13T05:34:58;98938.89;;;20.64;100.00
70488;BME280;57976;48.174;16.370;2023-07-13T05:37:05;98947.27;;;20.69;100.00
70488;BME280;57976;48.174;16.370;2023-07-13T05:39:10;98952.45;;;20.74;100.00
70488;BME280;57976;48.174;16.370;2023-07-13T05:41:15;98955.02;;;20.83;100.00
70488;BME280;57976;48.174;16.370;2023-07-13T05:43:19;98962.04;;;20.90;100.00
70488;BME280;57976;48.174;16.370;2023-07-13T05:45:24;98960.71;;;20.92;100.00
70488;BME280;57976;48.174;16.370;2023-07-13T05:47:29;98959.69;;;20.93;100.00
70488;BME280;57976;48.174;16.370;2023-07-13T05:49:34;98964.36;;;20.92;100.00
70488;BME280;57976;48.174;16.370;2023-07-13T05:51:49;98970.86;;;20.91;100.00
70488;BME280;57976;48.174;16.370;2023-07-13T05:53:54;98967.67;;;20.88;100.00
70488;BME280;57976;48.174;16.370;2023-07-13T05:55:59;98975.16;;;20.83;100.00
70488;BME280;57976;48.174;16.370;2023-07-13T05:58:06;98973.71;;;20.80;100.00
70488;BME280;57976;48.174;16.370;2023-07-13T06:00:13;98970.09;;;20.77;100.00
70488;BME280;57976;48.174;16.370;2023-07-13T06:02:19;98972.97;;;20.72;100.00
70488;BME280;57976;48.174;16.370;2023-07-13T06:04:24;98979.20;;;20.71;100.00
70488;BME280;57976;48.174;16.370;2023-07-13T06:06:29;98976.29;;;20.69;100.00
70488;BME280;57976;48.174;16.370;2023-07-13T06:08:34;98987.77;;;20.69;100.00
70488;BME280;57976;48.174;16.370;2023-07-13T06:10:39;98992.09;;;20.71;100.00
70488;BME280;57976;48.174;16.370;2023-07-13T06:12:44;98995.50;;;20.71;100.00
70488;BME280;57976;48.174;16.370;2023-07-13T06:14:49;98995.61;;;20.70;100.00
70488;BME280;57976;48.174;16.370;2023-07-13T06:16:54;98998.05;;;20.69;100.00
70488;BME280;57976;48.174;16.370;2023-07-13T06:18:58;99003.79;;;20.69;100.00
70488;BME280;57976;48.174;16.370;2023-07-13T06:21:07;99016.30;;;20.70;100.00
70488;BME280;57976;48.174;16.370;2023-07-13T06:23:12;99017.64;;;20.72;100.00
70488;BME280;57976;48.174;16.370;2023-07-13T06:25:17;99025.55;;;20.74;100.00
70488;BME280;57976;48.174;16.370;2023-07-13T06:27:22;99034.48;;;20.75;100.00
70488;BME280;57976;48.174;16.370;2023-07-13T06:29:27;99038.33;;;20.80;100.00
70488;BME280;57976;48.174;16.370;2023-07-13T06:31:35;99044.54;;;20.85;100.00
70488;BME280;57976;48.174;16.370;2023-07-13T06:33:40;99042.67;;;20.90;100.00
70488;BME280;57976;48.174;16.370;2023-07-13T06:35:45;99044.14;;;20.92;100.00
70488;BME280;57976;48.174;16.370;2023-07-13T06:37:49;99049.48;;;20.97;100.00
70488;BME280;57976;48.174;16.370;2023-07-13T06:39:54;99051.87;;;21.01;100.00
70488;BME280;57976;48.174;16.370;2023-07-13T06:41:59;99059.14;;;21.04;100.00
70488;BME280;57976;48.174;16.370;2023-07-13T06:44:04;99059.95;;;21.07;100.00
70488;BME280;57976;48.174;16.370;2023-07-13T06:46:09;99065.36;;;21.14;100.00
70488;BME280;57976;48.174;16.370;2023-07-13T06:48:14;99065.94;;;21.18;100.00
70488;BME280;57976;48.174;16.370;2023-07-13T06:50:19;99064.14;;;21.23;100.00
70488;BME280;57976;48.174;16.370;2023-07-13T06:52:24;99060.86;;;21.31;100.00
70488;BME280;57976;48.174;16.370;2023-07-13T06:54:29;99054.48;;;21.38;100.00
70488;BME280;57976;48.174;16.370;2023-07-13T06:56:34;99049.69;;;21.45;100.00
70488;BME280;57976;48.174;16.370;2023-07-13T06:58:39;99055.90;;;21.49;100.00
70488;BME280;57976;48.174;16.370;2023-07-13T07:00:44;99059.47;;;21.53;100.00
70488;BME280;57976;48.174;16.370;2023-07-13T07:02:51;99057.70;;;21.57;100.00
70488;BME280;57976;48.174;16.370;2023-07-13T07:04:56;99054.54;;;21.63;100.00
70488;BME280;57976;48.174;16.370;2023-07-13T07:07:01;99048.88;;;21.67;99.86
70488;BME280;57976;48.174;16.370;2023-07-13T07:09:07;99045.80;;;21.75;99.64
70488;BME280;57976;48.174;16.370;2023-07-13T07:11:16;99039.35;;;21.84;99.07
70488;BME280;57976;48.174;16.370;2023-07-13T07:13:21;99039.13;;;21.93;98.12
70488;BME280;57976;48.174;16.370;2023-07-13T07:15:26;99040.35;;;21.99;96.72
70488;BME280;57976;48.174;16.370;2023-07-13T07:17:31;99049.92;;;22.04;96.06
70488;BME280;57976;48.174;16.370;2023-07-13T07:19:36;99055.79;;;22.04;95.59
70488;BME280;57976;48.174;16.370;2023-07-13T07:21:41;99056.42;;;22.06;95.78
70488;BME280;57976;48.174;16.370;2023-07-13T07:23:46;99055.01;;;22.04;95.49
70488;BME280;57976;48.174;16.370;2023-07-13T07:25:51;99058.26;;;21.98;96.02
70488;BME280;57976;48.174;16.370;2023-07-13T07:27:56;99052.20;;;21.97;96.37
70488;BME280;57976;48.174;16.370;2023-07-13T07:30:05;99047.95;;;21.98;96.83
70488;BME280;57976;48.174;16.370;2023-07-13T07:32:13;99045.57;;;21.99;97.19
70488;BME280;57976;48.174;16.370;2023-07-13T07:34:38;99046.20;;;21.99;97.26
70488;BME280;57976;48.174;16.370;2023-07-13T07:36:43;99045.34;;;22.00;97.35
70488;BME280;57976;48.174;16.370;2023-07-13T07:38:50;99043.42;;;22.00;97.06
70488;BME280;57976;48.174;16.370;2023-07-13T07:40:55;99041.64;;;22.01;96.93
70488;BME280;57976;48.174;16.370;2023-07-13T07:43:03;99041.55;;;22.05;96.60
70488;BME280;57976;48.174;16.370;2023-07-13T07:45:08;99042.69;;;22.08;96.27
70488;BME280;57976;48.174;16.370;2023-07-13T07:47:13;99049.45;;;22.10;95.18
70488;BME280;57976;48.174;16.370;2023-07-13T07:49:18;99054.29;;;22.09;94.71
70488;BME280;57976;48.174;16.370;2023-07-13T07:51:24;99058.13;;;22.10;94.63
70488;BME280;57976;48.174;16.370;2023-07-13T07:53:28;99061.90;;;22.14;94.66
70488;BME280;57976;48.174;16.370;2023-07-13T07:55:38;99056.40;;;22.18;94.66
70488;BME280;57976;48.174;16.370;2023-07-13T07:57:46;99057.50;;;22.22;94.31
70488;BME280;57976;48.174;16.370;2023-07-13T07:59:53;99058.43;;;22.27;94.00
70488;BME280;57976;48.174;16.370;2023-07-13T08:02:05;99049.93;;;22.39;93.34
70488;BME280;57976;48.174;16.370;2023-07-13T08:04:13;99049.89;;;22.50;91.71
70488;BME280;57976;48.174;16.370;2023-07-13T08:06:37;99054.23;;;22.56;90.62
70488;BME280;57976;48.174;16.370;2023-07-13T08:08:45;99054.05;;;22.67;89.52
70488;BME280;57976;48.174;16.370;2023-07-13T08:10:50;99056.49;;;22.78;88.51
70488;BME280;57976;48.174;16.370;2023-07-13T08:12:59;99057.92;;;22.94;88.26
70488;BME280;57976;48.174;16.370;2023-07-13T08:15:11;99053.92;;;23.07;86.51
70488;BME280;57976;48.174;16.370;2023-07-13T08:17:16;99061.91;;;23.16;85.74
70488;BME280;57976;48.174;16.370;2023-07-13T08:19:21;99069.11;;;23.23;85.26
70488;BME280;57976;48.174;16.370;2023-07-13T08:21:26;99064.92;;;23.35;85.07
70488;BME280;57976;48.174;16.370;2023-07-13T08:23:30;99069.05;;;23.49;84.67
70488;BME280;57976;48.174;16.370;2023-07-13T08:25:38;99063.25;;;23.65;83.87
70488;BME280;57976;48.174;16.370;2023-07-13T08:27:42;99059.95;;;23.80;82.92
70488;BME280;57976;48.174;16.370;2023-07-13T08:29:48;99055.48;;;23.95;81.88
70488;BME280;57976;48.174;16.370;2023-07-13T08:31:53;99059.91;;;24.10;81.64
70488;BME280;57976;48.174;16.370;2023-07-13T08:33:58;99066.50;;;24.28;80.04
70488;BME280;57976;48.174;16.370;2023-07-13T08:36:04;99074.45;;;24.41;78.37
70488;BME280;57976;48.174;16.370;2023-07-13T08:38:09;99074.63;;;24.58;77.87
70488;BME280;57976;48.174;16.370;2023-07-13T08:40:14;99070.89;;;24.72;75.94
70488;BME280;57976;48.174;16.370;2023-07-13T08:42:26;99071.74;;;24.83;76.02
70488;BME280;57976;48.174;16.370;2023-07-13T08:44:40;99077.77;;;24.94;74.86
70488;BME280;57976;48.174;16.370;2023-07-13T08:46:49;99071.74;;;24.99;74.77
70488;BME280;57976;48.174;16.370;2023-07-13T08:48:59;99076.08;;;24.95;74.90
70488;BME280;57976;48.174;16.370;2023-07-13T08:51:19;99079.34;;;24.95;75.01
70488;BME280;57976;48.174;16.370;2023-07-13T08:53:34;99091.66;;;24.98;74.13
70488;BME280;57976;48.174;16.370;2023-07-13T08:55:39;99079.02;;;24.95;74.08
70488;BME280;57976;48.174;16.370;2023-07-13T08:57:46;99075.45;;;24.92;74.36
70488;BME280;57976;48.174;16.370;2023-07-13T08:59:54;99076.81;;;24.96;74.98
70488;BME280;57976;48.174;16.370;2023-07-13T09:02:14;99073.59;;;24.99;75.50
70488;BME280;57976;48.174;16.370;2023-07-13T09:04:23;99075.92;;;25.08;75.66
70488;BME280;57976;48.174;16.370;2023-07-13T09:06:34;99082.55;;;25.19;75.27
70488;BME280;57976;48.174;16.370;2023-07-13T09:08:54;99085.84;;;25.26;75.01
70488;BME280;57976;48.174;16.370;2023-07-13T09:11:10;99088.79;;;25.36;74.68
70488;BME280;57976;48.174;16.370;2023-07-13T09:13:27;99088.52;;;25.49;74.25
70488;BME280;57976;48.174;16.370;2023-07-13T09:15:37;99100.73;;;25.61;73.54
70488;BME280;57976;48.174;16.370;2023-07-13T09:17:48;99103.31;;;25.71;72.74
70488;BME280;57976;48.174;16.370;2023-07-13T09:19:59;99096.80;;;25.76;71.28
70488;BME280;57976;48.174;16.370;2023-07-13T09:22:13;99087.63;;;25.83;72.01
70488;BME280;57976;48.174;16.370;2023-07-13T09:24:31;99088.95;;;25.93;70.80
70488;BME280;57976;48.174;16.370;2023-07-13T09:26:41;99091.20;;;26.04;70.42
70488;BME280;57976;48.174;16.370;2023-07-13T09:28:48;99091.75;;;26.15;69.70
70488;BME280;57976;48.174;16.370;2023-07-13T09:30:58;99087.61;;;26.29;69.45
70488;BME280;57976;48.174;16.370;2023-07-13T09:33:05;99082.60;;;26.35;68.41
70488;BME280;57976;48.174;16.370;2023-07-13T09:35:12;99089.77;;;26.28;68.89
70488;BME280;57976;48.174;16.370;2023-07-13T09:37:17;99077.28;;;26.22;69.03
70488;BME280;57976;48.174;16.370;2023-07-13T09:39:33;99079.66;;;26.23;69.33
70488;BME280;57976;48.174;16.370;2023-07-13T09:41:44;99074.54;;;26.22;68.81
70488;BME280;57976;48.174;16.370;2023-07-13T09:44:09;99083.84;;;26.21;68.45
70488;BME280;57976;48.174;16.370;2023-07-13T09:46:22;99093.46;;;26.19;67.91
70488;BME280;57976;48.174;16.370;2023-07-13T09:48:35;99093.92;;;26.20;67.31
70488;BME280;57976;48.174;16.370;2023-07-13T09:50:40;99085.71;;;26.21;67.70
70488;BME280;57976;48.174;16.370;2023-07-13T09:52:47;99075.67;;;26.28;67.34
70488;BME280;57976;48.174;16.370;2023-07-13T09:54:53;99064.11;;;26.38;67.09
70488;BME280;57976;48.174;16.370;2023-07-13T09:57:00;99071.06;;;26.48;66.08
70488;BME280;57976;48.174;16.370;2023-07-13T09:59:09;99067.64;;;26.59;65.30
70488;BME280;57976;48.174;16.370;2023-07-13T10:01:34;99081.40;;;26.64;63.67
70488;BME280;57976;48.174;16.370;2023-07-13T10:03:40;99070.48;;;26.61;63.46
70488;BME280;57976;48.174;16.370;2023-07-13T10:06:09;99069.48;;;26.66;63.95
70488;BME280;57976;48.174;16.370;2023-07-13T10:08:23;99060.16;;;26.69;63.74
70488;BME280;57976;48.174;16.370;2023-07-13T10:10:28;99083.98;;;26.77;63.10
70488;BME280;57976;48.174;16.370;2023-07-13T10:12:37;99071.13;;;26.82;63.01
70488;BME280;57976;48.174;16.370;2023-07-13T10:14:43;99074.17;;;26.91;61.81
70488;BME280;57976;48.174;16.370;2023-07-13T10:16:48;99086.90;;;26.95;61.18
70488;BME280;57976;48.174;16.370;2023-07-13T10:18:57;99083.58;;;27.01;61.21
70488;BME280;57976;48.174;16.370;2023-07-13T10:21:13;99077.44;;;27.08;61.35
70488;BME280;57976;48.174;16.370;2023-07-13T10:23:27;99082.55;;;27.19;61.10
70488;BME280;57976;48.174;16.370;2023-07-13T10:25:41;99079.23;;;27.22;61.34
70488;BME280;57976;48.174;16.370;2023-07-13T10:27:48;99077.57;;;27.31;62.00
70488;BME280;57976;48.174;16.370;2023-07-13T10:29:58;99081.57;;;27.43;61.92
70488;BME280;57976;48.174;16.370;2023-07-13T10:32:09;99088.09;;;27.50;60.93
70488;BME280;57976;48.174;16.370;2023-07-13T10:34:16;99086.23;;;27.52;60.32
70488;BME280;57976;48.174;16.370;2023-07-13T10:36:30;99105.09;;;27.49;59.59
70488;BME280;57976;48.174;16.370;2023-07-13T10:38:35;99096.63;;;27.47;59.77
70488;BME280;57976;48.174;16.370;2023-07-13T10:40:42;99107.20;;;27.42;57.83
70488;BME280;57976;48.174;16.370;2023-07-13T10:42:51;99105.98;;;27.39;57.90
70488;BME280;57976;48.174;16.370;2023-07-13T10:44:59;99099.80;;;27.34;58.41
70488;BME280;57976;48.174;16.370;2023-07-13T10:47:06;99096.79;;;27.29;59.29
70488;BME280;57976;48.174;16.370;2023-07-13T10:49:13;99094.63;;;27.31;59.95
70488;BME280;57976;48.174;16.370;2023-07-13T10:51:19;99088.71;;;27.31;59.92
70488;BME280;57976;48.174;16.370;2023-07-13T10:53:29;99082.65;;;27.33;59.74
70488;BME280;57976;48.174;16.370;2023-07-13T10:55:40;99085.68;;;27.32;59.22
70488;BME280;57976;48.174;16.370;2023-07-13T10:57:46;99081.48;;;27.26;58.48
70488;BME280;57976;48.174;16.370;2023-07-13T11:00:15;99082.05;;;27.20;57.96
70488;BME280;57976;48.174;16.370;2023-07-13T11:02:27;99080.20;;;27.13;58.18
70488;BME280;57976;48.174;16.370;2023-07-13T11:04:43;99085.52;;;27.18;57.62
70488;BME280;57976;48.174;16.370;2023-07-13T11:06:52;99081.64;;;27.26;57.21